Terminal Aerodrome Forecast
Issued by NWS Northern Indiana

Home | Current Version | Previous Version | Graphics & Text | Print | Product List | Glossary On
Versions: 1 2 3 4 5 6 7 8 9 10 11 12 13 14 15
462
FTUS43 KIWX 231728
TAFFWA
TAF
KFWA 231728Z 2318/2418 24008KT P6SM SCT016 BKN150
     FM232300 08008KT P6SM VCSH SCT030 OVC080
     FM240500 14010KT 3SM -SHRA BR OVC015 WS020/21040KT
     FM241100 17012KT 6SM BR OVC020
     FM241500 19013G23KT P6SM OVC020=

USA.gov is the U.S. government's official web portal to all federal, state and local government web resources and services.